Time;durP1;ratioP1;P1;durP2;ratioP2;P2;SDS_P1;SDS_P2;PMS_P1;PMS_P2;Temp;Humidity;BMP_temperature;BMP_pressure;BME280_temperature;BME280_humidity;BME280_pressure;Samples;Min_cycle;Max_cycle;Signal;HPM_P1;HPM_P2
2022/05/15 00:02:45;;;;;;;9.82;4.30;;;22.50;52.00;;;;;;5028924;28;20034;-85
2022/05/15 00:05:10;;;;;;;7.40;4.25;;;22.40;52.00;;;;;;5014224;28;20018;-85
2022/05/15 00:07:36;;;;;;;11.70;4.38;;;22.40;52.00;;;;;;5014958;28;20030;-85
2022/05/15 00:10:04;;;;;;;9.38;4.40;;;22.40;52.00;;;;;;5012859;28;20437;-85
2022/05/15 00:12:30;;;;;;;8.77;4.20;;;22.40;51.90;;;;;;5014155;28;20354;-86
2022/05/15 00:14:55;;;;;;;6.78;4.10;;;22.50;51.90;;;;;;5012476;28;20034;-85
2022/05/15 00:17:21;;;;;;;8.93;4.47;;;22.50;51.90;;;;;;5012695;28;20029;-85
2022/05/15 00:19:47;;;;;;;7.38;3.92;;;22.50;51.80;;;;;;5012979;28;20036;-85
2022/05/15 00:22:14;;;;;;;8.73;4.22;;;22.50;51.80;;;;;;5013767;28;20390;-85
2022/05/15 00:24:39;;;;;;;7.47;4.60;;;22.40;51.80;;;;;;5013478;28;20033;-85
2022/05/15 00:27:05;;;;;;;7.68;4.00;;;22.40;51.80;;;;;;5014378;28;20033;-86
2022/05/15 00:29:33;;;;;;;8.02;4.28;;;22.40;51.70;;;;;;5028626;28;20042;-86
2022/05/15 00:31:59;;;;;;;8.00;4.28;;;22.40;51.70;;;;;;5027754;28;20040;-85
2022/05/15 00:34:25;;;;;;;7.22;4.05;;;22.50;51.80;;;;;;5011281;28;20426;-85
2022/05/15 00:36:50;;;;;;;6.85;3.83;;;22.40;51.70;;;;;;5012004;28;20037;-85
2022/05/15 00:39:17;;;;;;;7.75;3.92;;;22.50;51.80;;;;;;5012403;28;20026;-85
2022/05/15 00:41:43;;;;;;;7.05;4.15;;;22.40;51.70;;;;;;5028779;28;20029;-85
2022/05/15 00:44:09;;;;;;;6.85;3.83;;;22.40;51.80;;;;;;5012962;28;20026;-85
2022/05/15 00:46:39;;;;;;;8.48;3.97;;;22.50;51.80;;;;;;5011209;28;20033;-85
2022/05/15 00:49:13;;;;;;;9.32;3.90;;;22.40;51.70;;;;;;5013103;28;20394;-85
2022/05/15 00:51:45;;;;;;;8.02;4.13;;;22.40;51.80;;;;;;5013213;28;20030;-85
2022/05/15 00:54:14;;;;;;;6.28;3.88;;;22.40;51.70;;;;;;5011576;28;20087;-85
2022/05/15 00:56:45;;;;;;;7.68;3.95;;;22.40;51.70;;;;;;4995532;28;20068;-85
2022/05/15 00:59:15;;;;;;;6.07;3.78;;;22.40;51.80;;;;;;5013223;28;20033;-85
2022/05/15 01:01:41;;;;;;;8.63;4.50;;;22.40;51.80;;;;;;5028417;28;20037;-85
2022/05/15 01:04:08;;;;;;;7.63;4.18;;;22.40;51.70;;;;;;5011934;28;20025;-85
2022/05/15 01:06:36;;;;;;;6.55;3.80;;;22.40;51.70;;;;;;5010875;28;20521;-85
2022/05/15 01:09:04;;;;;;;7.93;3.95;;;22.40;51.80;;;;;;5011815;28;20517;-86
2022/05/15 01:11:33;;;;;;;8.95;4.18;;;22.40;51.70;;;;;;5011912;28;20037;-86
2022/05/15 01:14:02;;;;;;;7.20;4.07;;;22.40;51.70;;;;;;5013219;28;20026;-86
2022/05/15 01:16:28;;;;;;;5.50;3.17;;;22.40;51.70;;;;;;5011885;28;20029;-85
2022/05/15 01:18:59;;;;;;;7.05;3.53;;;22.40;51.80;;;;;;5010851;28;20264;-85
2022/05/15 01:21:50;;;;;;;8.35;4.22;;;22.40;51.60;;;;;;5008758;28;20056;-85
2022/05/15 01:24:17;;;;;;;6.45;3.55;;;22.40;51.60;;;;;;5011690;28;20033;-86
2022/05/15 01:26:44;;;;;;;7.82;3.85;;;22.40;51.70;;;;;;5027142;28;20115;-85
2022/05/15 01:29:13;;;;;;;7.68;3.80;;;22.40;51.60;;;;;;5011562;28;20029;-86
2022/05/15 01:31:39;;;;;;;7.28;3.88;;;22.40;51.60;;;;;;5011773;28;20033;-85
2022/05/15 01:34:09;;;;;;;5.40;3.25;;;22.40;51.60;;;;;;5011310;28;20536;-85
2022/05/15 01:36:37;;;;;;;6.30;3.88;;;22.40;51.60;;;;;;5009248;28;20427;-85
2022/05/15 01:39:05;;;;;;;5.97;3.72;;;22.40;51.60;;;;;;5027989;28;20386;-85
2022/05/15 01:41:30;;;;;;;8.40;3.67;;;22.40;52.20;;;;;;5027945;28;20030;-85
2022/05/15 01:43:56;;;;;;;6.70;3.63;;;22.40;51.60;;;;;;5011296;28;20104;-85
2022/05/15 01:46:27;;;;;;;5.78;3.50;;;22.40;51.60;;;;;;5011729;28;20030;-85
2022/05/15 01:48:54;;;;;;;5.35;3.30;;;22.40;51.60;;;;;;5011308;28;20033;-84
2022/05/15 01:51:22;;;;;;;6.72;3.70;;;22.40;51.60;;;;;;5009495;28;20080;-84
2022/05/15 01:53:49;;;;;;;6.75;3.70;;;22.40;51.70;;;;;;4994547;28;20151;-84
2022/05/15 01:56:15;;;;;;;7.20;3.80;;;22.40;51.60;;;;;;5010953;28;20041;-84
2022/05/15 01:58:41;;;;;;;7.63;4.05;;;22.40;51.70;;;;;;5011166;28;20105;-84
2022/05/15 02:01:07;;;;;;;5.75;3.50;;;22.40;51.60;;;;;;5010970;28;20368;-84
2022/05/15 02:03:35;;;;;;;7.45;4.15;;;22.40;51.60;;;;;;5009669;28;20209;-84
2022/05/15 02:06:02;;;;;;;5.65;3.40;;;22.40;51.60;;;;;;4994506;28;20021;-84
2022/05/15 02:08:34;;;;;;;7.63;3.70;;;22.40;51.60;;;;;;5010666;28;20092;-84
2022/05/15 02:11:00;;;;;;;8.05;3.80;;;22.40;51.50;;;;;;5010513;28;20034;-84
2022/05/15 02:13:26;;;;;;;6.15;3.25;;;22.40;51.50;;;;;;4994100;28;20487;-84
2022/05/15 02:15:53;;;;;;;6.85;3.67;;;22.40;51.50;;;;;;5026792;28;20108;-83
2022/05/15 02:18:19;;;;;;;7.18;3.65;;;22.40;51.60;;;;;;5009525;28;20021;-83
2022/05/15 02:20:45;;;;;;;5.82;3.55;;;22.40;51.60;;;;;;5037090;28;20121;-83
2022/05/15 02:23:11;;;;;;;6.47;3.67;;;22.40;51.60;;;;;;5011494;28;20113;-84
2022/05/15 02:25:39;;;;;;;5.95;3.33;;;22.30;51.50;;;;;;5010469;28;20033;-83
2022/05/15 02:28:05;;;;;;;6.72;3.90;;;22.40;51.50;;;;;;5010539;28;20037;-84
2022/05/15 02:30:31;;;;;;;6.35;3.58;;;22.30;51.50;;;;;;5010553;28;20435;-83
2022/05/15 02:32:57;;;;;;;6.85;3.50;;;22.40;51.50;;;;;;5007450;28;20037;-83
2022/05/15 02:35:23;;;;;;;7.63;3.72;;;22.30;51.50;;;;;;5009742;28;20034;-84
2022/05/15 02:37:48;;;;;;;6.97;3.58;;;22.30;51.50;;;;;;5013254;28;20076;-84
2022/05/15 02:40:21;;;;;;;7.30;3.55;;;22.30;51.50;;;;;;5014685;28;20036;-84
2022/05/15 02:42:48;;;;;;;5.60;3.40;;;22.30;51.50;;;;;;5031249;28;20035;-84
2022/05/15 02:45:14;;;;;;;7.03;3.55;;;22.30;51.60;;;;;;5015057;28;20062;-84
2022/05/15 02:47:41;;;;;;;6.80;3.67;;;22.30;51.60;;;;;;5014443;28;20034;-85
2022/05/15 02:52:55;;;;;;;7.65;4.03;;;22.30;51.60;;;;;;5023030;28;20041;-84
2022/05/15 02:55:22;;;;;;;7.20;3.80;;;22.30;51.50;;;;;;5015842;28;20457;-83
2022/05/15 02:57:48;;;;;;;8.35;3.85;;;22.30;51.50;;;;;;5030857;28;20080;-85
2022/05/15 03:00:15;;;;;;;6.30;3.60;;;22.30;51.50;;;;;;5014682;28;20029;-83
2022/05/15 03:02:41;;;;;;;6.93;3.35;;;22.30;51.60;;;;;;4999604;28;20030;-85
2022/05/15 03:05:10;;;;;;;5.75;3.55;;;22.30;51.50;;;;;;5014852;28;20028;-84
2022/05/15 03:07:36;;;;;;;7.32;3.90;;;22.30;51.50;;;;;;5036719;28;20382;-84
2022/05/15 03:10:03;;;;;;;5.95;3.20;;;22.30;51.50;;;;;;5003044;28;20042;-84
2022/05/15 03:12:29;;;;;;;7.05;3.53;;;22.30;51.50;;;;;;5016456;28;20034;-84
2022/05/15 03:14:55;;;;;;;7.05;3.45;;;22.30;51.50;;;;;;4997617;28;20030;-85
2022/05/15 03:17:21;;;;;;;5.82;3.33;;;22.30;51.50;;;;;;5015296;28;20065;-84
2022/05/15 03:19:47;;;;;;;7.05;3.30;;;22.30;51.40;;;;;;5014067;28;20025;-84
2022/05/15 03:22:13;;;;;;;5.75;3.50;;;22.30;51.50;;;;;;5014899;28;20049;-84
2022/05/15 03:24:39;;;;;;;8.05;3.80;;;22.30;51.40;;;;;;5014575;28;20026;-84
2022/05/15 03:27:05;;;;;;;5.68;3.20;;;22.30;51.40;;;;;;5029969;28;20033;-84
2022/05/15 03:29:31;;;;;;;7.10;3.55;;;22.30;51.40;;;;;;5013724;28;20037;-85
2022/05/15 03:31:57;;;;;;;5.30;3.28;;;22.30;51.50;;;;;;5030031;28;20080;-84
2022/05/15 03:34:23;;;;;;;6.13;3.28;;;22.30;51.50;;;;;;5012764;28;20038;-84
2022/05/15 03:36:53;;;;;;;6.22;3.17;;;22.20;51.40;;;;;;5013454;28;20081;-85
2022/05/15 03:39:21;;;;;;;6.57;3.45;;;22.30;51.40;;;;;;5012702;28;20091;-84
2022/05/15 03:41:48;;;;;;;6.70;3.70;;;22.30;51.50;;;;;;5013636;28;20030;-84
2022/05/15 03:44:15;;;;;;;5.43;3.20;;;22.20;51.50;;;;;;5013038;28;20037;-84
2022/05/15 03:46:43;;;;;;;4.75;3.20;;;22.20;51.40;;;;;;4997175;28;20383;-84
2022/05/15 03:49:11;;;;;;;5.72;3.53;;;22.30;51.50;;;;;;5011753;28;20475;-84
2022/05/15 03:51:37;;;;;;;5.82;3.50;;;22.30;51.50;;;;;;5013110;28;20040;-84
2022/05/15 03:54:04;;;;;;;5.55;3.30;;;22.20;51.50;;;;;;5013225;28;20041;-83
2022/05/15 03:59:16;;;;;;;6.07;3.40;;;22.20;51.50;;;;;;5029252;28;20030;-84
2022/05/15 04:01:42;;;;;;;5.25;3.00;;;22.30;51.50;;;;;;5012918;28;20342;-83
2022/05/15 04:04:08;;;;;;;5.70;3.10;;;22.20;51.40;;;;;;5012638;28;20026;-83
2022/05/15 04:06:34;;;;;;;6.90;3.50;;;22.30;51.50;;;;;;5029417;28;20070;-83
2022/05/15 04:09:00;;;;;;;6.65;3.65;;;22.20;51.40;;;;;;5013032;28;20605;-85
2022/05/15 04:11:26;;;;;;;5.93;3.40;;;22.20;51.40;;;;;;5012143;28;20117;-84
2022/05/15 04:13:52;;;;;;;5.60;3.03;;;22.30;51.40;;;;;;5013693;28;20033;-84
2022/05/15 04:16:18;;;;;;;7.00;3.45;;;22.30;51.40;;;;;;5029369;28;20394;-84
2022/05/15 04:18:43;;;;;;;6.10;3.47;;;22.30;51.30;;;;;;5028863;28;20512;-84
2022/05/15 04:21:10;;;;;;;5.43;3.13;;;22.30;51.30;;;;;;5012531;28;20403;-84
2022/05/15 04:23:36;;;;;;;7.65;3.22;;;22.30;51.40;;;;;;5028840;28;20106;-85
2022/05/15 04:26:03;;;;;;;5.97;3.20;;;22.30;51.30;;;;;;5012309;28;20030;-84
2022/05/15 04:28:29;;;;;;;5.72;3.30;;;22.30;51.30;;;;;;5011496;28;20101;-84
2022/05/15 04:30:54;;;;;;;7.20;3.58;;;22.30;51.30;;;;;;5013663;28;20105;-84
2022/05/15 04:33:20;;;;;;;6.45;3.30;;;22.20;51.30;;;;;;5028558;28;20033;-85
2022/05/15 04:35:46;;;;;;;6.55;3.10;;;22.30;51.30;;;;;;5013738;28;20141;-84
2022/05/15 04:38:11;;;;;;;6.40;3.20;;;22.30;51.30;;;;;;5013375;28;20076;-85
2022/05/15 04:40:37;;;;;;;6.00;3.63;;;22.20;51.30;;;;;;4979920;28;20075;-85
2022/05/15 04:43:03;;;;;;;6.47;3.25;;;22.20;51.30;;;;;;5011490;28;20026;-84
2022/05/15 04:45:29;;;;;;;6.70;3.25;;;22.30;51.30;;;;;;5013395;28;20437;-84
2022/05/15 04:47:55;;;;;;;6.15;3.00;;;22.30;51.30;;;;;;5013393;28;20091;-86
2022/05/15 04:50:21;;;;;;;5.82;3.17;;;22.30;51.30;;;;;;5012282;28;20026;-84
2022/05/15 04:52:47;;;;;;;7.65;3.63;;;22.20;51.30;;;;;;4995854;28;20034;-85
2022/05/15 04:55:14;;;;;;;5.22;3.22;;;22.20;51.30;;;;;;5012001;28;20033;-84
2022/05/15 04:57:41;;;;;;;6.28;3.10;;;22.20;51.30;;;;;;5013058;28;20030;-84
2022/05/15 05:00:13;;;;;;;5.03;3.15;;;22.20;51.30;;;;;;5009997;28;20029;-85
2022/05/15 05:02:39;;;;;;;5.75;3.13;;;22.20;51.30;;;;;;5027425;28;20033;-85
2022/05/15 05:05:05;;;;;;;5.55;2.85;;;22.20;51.30;;;;;;5028038;28;20030;-85
2022/05/15 05:07:31;;;;;;;6.75;3.15;;;22.20;51.30;;;;;;4995946;28;20049;-85
2022/05/15 05:09:57;;;;;;;6.95;3.03;;;22.20;51.30;;;;;;5011631;28;20026;-85
2022/05/15 05:12:23;;;;;;;5.20;2.97;;;22.20;51.30;;;;;;5012992;28;20037;-83
2022/05/15 05:14:49;;;;;;;6.20;2.92;;;22.20;51.20;;;;;;5011625;28;20053;-84
2022/05/15 05:17:15;;;;;;;7.20;2.97;;;22.20;51.20;;;;;;5010751;28;20057;-85
2022/05/15 05:19:42;;;;;;;6.90;3.40;;;22.30;51.20;;;;;;5012723;28;20033;-84
2022/05/15 05:22:08;;;;;;;7.13;3.35;;;22.30;51.20;;;;;;5011697;28;20045;-84
2022/05/15 05:24:33;;;;;;;5.68;3.22;;;22.30;51.20;;;;;;5011255;28;20471;-84
2022/05/15 05:27:01;;;;;;;7.43;3.75;;;22.20;51.10;;;;;;5012532;28;20121;-84
2022/05/15 05:29:27;;;;;;;7.03;3.47;;;22.30;51.20;;;;;;5028288;28;20033;-85
2022/05/15 05:31:53;;;;;;;5.75;3.13;;;22.20;51.10;;;;;;5011663;28;20030;-84
2022/05/15 05:34:19;;;;;;;6.95;3.30;;;22.30;51.20;;;;;;5010510;28;20552;-85
2022/05/15 05:36:45;;;;;;;6.43;3.10;;;22.30;51.40;;;;;;5010926;28;20030;-84
2022/05/15 05:39:11;;;;;;;6.03;3.10;;;22.30;51.20;;;;;;5011495;28;20394;-84
2022/05/15 05:41:37;;;;;;;7.00;3.40;;;22.30;51.20;;;;;;5012518;28;20026;-85
2022/05/15 05:44:03;;;;;;;4.95;3.03;;;22.30;51.20;;;;;;5011029;28;20121;-86
2022/05/15 05:46:29;;;;;;;5.13;2.95;;;22.20;51.10;;;;;;5012251;28;20040;-85
2022/05/15 05:48:56;;;;;;;8.10;3.30;;;22.30;51.10;;;;;;5010310;28;20056;-85
2022/05/15 05:51:22;;;;;;;5.30;3.03;;;22.30;51.20;;;;;;5012407;28;20022;-85
2022/05/15 05:53:48;;;;;;;6.40;3.17;;;22.30;51.10;;;;;;4995200;28;20032;-85
2022/05/15 05:56:14;;;;;;;6.30;3.22;;;22.20;51.10;;;;;;5013673;28;20105;-85
2022/05/15 05:58:40;;;;;;;6.15;3.17;;;22.30;51.20;;;;;;5012256;28;20033;-85
2022/05/15 06:01:06;;;;;;;5.55;2.97;;;22.20;51.10;;;;;;5012070;28;20029;-85
2022/05/15 06:06:17;;;;;;;5.38;2.63;;;22.30;51.20;;;;;;5010480;28;20018;-84
2022/05/15 06:08:44;;;;;;;5.65;2.90;;;22.30;51.20;;;;;;5010928;28;20033;-84
2022/05/15 06:11:10;;;;;;;5.60;3.28;;;22.20;51.10;;;;;;5011377;28;20497;-85
2022/05/15 06:13:36;;;;;;;6.93;3.00;;;22.30;51.20;;;;;;5011592;28;20032;-85
2022/05/15 06:16:02;;;;;;;5.13;2.85;;;22.30;51.10;;;;;;5010676;28;20022;-85
2022/05/15 06:18:28;;;;;;;4.82;2.97;;;22.30;51.00;;;;;;4994430;28;20133;-85
2022/05/15 06:20:54;;;;;;;5.80;2.90;;;22.30;51.00;;;;;;5009715;28;20036;-85
2022/05/15 06:23:21;;;;;;;5.22;3.30;;;22.30;51.00;;;;;;5010377;28;20030;-85
2022/05/15 06:25:46;;;;;;;5.35;3.00;;;22.30;51.00;;;;;;5012026;28;20026;-85
2022/05/15 06:28:12;;;;;;;6.30;3.13;;;22.30;51.00;;;;;;5010749;28;20030;-85
2022/05/15 06:30:38;;;;;;;5.43;3.03;;;22.30;51.00;;;;;;5011708;28;20067;-85
2022/05/15 06:33:05;;;;;;;5.60;2.63;;;22.30;51.10;;;;;;5011398;28;20038;-85
2022/05/15 06:35:31;;;;;;;5.20;2.70;;;22.30;51.10;;;;;;5011744;28;20053;-86
2022/05/15 06:38:03;;;;;;;7.13;2.92;;;22.30;51.10;;;;;;5025637;28;20116;-86
2022/05/15 06:40:29;;;;;;;7.72;3.13;;;22.30;51.10;;;;;;5011771;28;20034;-85
2022/05/15 06:42:57;;;;;;;5.88;2.92;;;22.30;51.10;;;;;;5010559;28;20520;-85
2022/05/15 06:45:24;;;;;;;5.75;3.20;;;22.30;51.10;;;;;;5011734;28;20358;-85
2022/05/15 06:47:50;;;;;;;5.20;2.60;;;22.30;51.10;;;;;;5011379;28;20137;-85
2022/05/15 06:50:16;;;;;;;5.07;2.65;;;22.30;51.10;;;;;;5010182;28;20057;-85
2022/05/15 06:52:41;;;;;;;4.22;2.65;;;22.30;51.20;;;;;;5009441;28;20471;-85
2022/05/15 06:55:20;;;;;;;4.57;2.60;;;22.30;51.20;;;;;;5009987;28;20097;-85
2022/05/15 06:57:50;;;;;;;5.22;2.72;;;22.20;51.10;;;;;;5011469;28;20036;-85
2022/05/15 07:00:25;;;;;;;6.28;2.78;;;22.30;51.10;;;;;;5011491;28;20414;-85
2022/05/15 07:02:51;;;;;;;5.05;2.90;;;22.30;51.00;;;;;;5009839;28;20035;-85
2022/05/15 07:05:24;;;;;;;4.97;2.50;;;22.30;51.10;;;;;;5011640;28;20033;-85
2022/05/15 07:07:52;;;;;;;5.50;2.80;;;22.30;51.00;;;;;;5011321;28;20036;-85
2022/05/15 07:10:18;;;;;;;4.47;2.50;;;22.30;51.00;;;;;;5009607;28;20505;-83
2022/05/15 07:12:44;;;;;;;5.30;2.80;;;22.30;51.00;;;;;;5009877;28;20034;-84
2022/05/15 07:15:10;;;;;;;5.70;3.03;;;22.30;50.90;;;;;;5010065;28;20038;-84
2022/05/15 07:17:36;;;;;;;5.93;2.80;;;22.30;50.90;;;;;;5011135;28;20390;-84
2022/05/15 07:20:03;;;;;;;8.30;2.88;;;22.30;50.90;;;;;;5010984;28;20105;-82
2022/05/15 07:22:29;;;;;;;4.72;2.47;;;22.30;50.90;;;;;;5027331;28;20101;-86
2022/05/15 07:24:55;;;;;;;5.13;2.65;;;22.30;50.90;;;;;;5014291;28;20026;-86
2022/05/15 07:27:21;;;;;;;4.85;2.80;;;22.30;50.80;;;;;;5014521;28;20026;-86
2022/05/15 07:29:47;;;;;;;5.57;2.60;;;22.30;50.90;;;;;;5015474;28;20269;-86
2022/05/15 07:32:12;;;;;;;4.60;2.60;;;22.30;50.90;;;;;;5013831;28;20034;-85
2022/05/15 07:34:40;;;;;;;5.47;2.72;;;22.30;50.90;;;;;;5014817;28;20022;-85
2022/05/15 07:37:07;;;;;;;5.30;2.72;;;22.30;51.10;;;;;;5015011;28;20390;-85
2022/05/15 07:39:32;;;;;;;5.03;2.97;;;22.30;51.00;;;;;;5015239;28;20022;-86
2022/05/15 07:41:58;;;;;;;3.00;2.20;;;22.30;50.90;;;;;;5014750;28;20156;-86
2022/05/15 07:44:24;;;;;;;4.68;2.60;;;22.30;50.90;;;;;;5014813;28;20022;-87
2022/05/15 07:46:50;;;;;;;5.28;2.83;;;22.30;50.90;;;;;;5016083;28;20045;-85
2022/05/15 07:49:16;;;;;;;4.55;2.38;;;22.30;50.90;;;;;;5014411;28;20037;-86
2022/05/15 07:51:44;;;;;;;4.88;2.80;;;22.30;50.80;;;;;;5015659;28;20466;-86
2022/05/15 07:54:15;;;;;;;6.15;3.08;;;22.40;51.00;;;;;;5014022;28;20034;-84
2022/05/15 07:56:41;;;;;;;4.50;2.50;;;22.40;50.90;;;;;;5013997;28;20033;-86
2022/05/15 07:59:07;;;;;;;3.85;2.38;;;22.30;50.90;;;;;;5013041;28;20030;-86
2022/05/15 08:01:34;;;;;;;6.00;3.10;;;22.30;50.80;;;;;;5014137;28;20033;-86
2022/05/15 08:04:00;;;;;;;4.28;2.65;;;22.40;51.00;;;;;;5014802;28;20091;-84
2022/05/15 08:09:10;;;;;;;3.15;2.25;;;22.30;50.90;;;;;;5030136;28;20380;-85
2022/05/15 08:11:36;;;;;;;5.78;2.92;;;22.40;50.90;;;;;;5014762;28;20033;-85
2022/05/15 08:14:04;;;;;;;5.38;2.45;;;22.40;50.90;;;;;;5012751;28;20426;-85
2022/05/15 08:16:32;;;;;;;5.32;2.70;;;22.40;50.90;;;;;;5013491;28;20026;-85
2022/05/15 08:24:27;;;;;;;4.22;2.42;;;22.40;50.80;;;;;;5014138;28;20030;-84
2022/05/15 08:26:52;;;;;;;4.25;2.50;;;22.40;50.90;;;;;;5014458;28;20064;-84
2022/05/15 08:29:19;;;;;;;3.40;2.35;;;22.40;51.00;;;;;;5015478;28;20037;-84
2022/05/15 08:31:46;;;;;;;4.90;2.70;;;22.40;51.50;;;;;;5012387;28;20101;-85
2022/05/15 08:34:12;;;;;;;4.20;2.40;;;22.40;50.90;;;;;;5013207;28;20189;-84
2022/05/15 08:36:41;;;;;;;4.90;2.60;;;22.40;50.90;;;;;;5014691;28;20025;-85
2022/05/15 08:39:08;;;;;;;4.00;2.30;;;22.40;51.00;;;;;;5014805;28;20056;-85
2022/05/15 08:41:49;;;;;;;3.95;2.45;;;22.40;51.00;;;;;;5013145;28;20026;-85
2022/05/15 08:44:14;;;;;;;4.25;2.63;;;22.40;51.00;;;;;;5012086;28;20414;-85
2022/05/15 08:46:49;;;;;;;3.83;2.40;;;22.40;51.00;;;;;;5013779;28;20045;-85
2022/05/15 08:49:32;;;;;;;4.28;2.47;;;22.40;51.00;;;;;;5014293;28;20534;-86
2022/05/15 08:52:05;;;;;;;5.88;2.65;;;22.40;51.00;;;;;;5014460;28;20053;-85
2022/05/15 08:54:36;;;;;;;4.82;2.67;;;22.40;51.00;;;;;;5013936;28;20107;-85
2022/05/15 08:57:02;;;;;;;5.25;2.78;;;22.40;51.10;;;;;;5013010;28;20049;-84
2022/05/15 08:59:33;;;;;;;3.80;2.42;;;22.40;51.10;;;;;;5012737;28;20026;-85
2022/05/15 09:02:00;;;;;;;4.80;2.70;;;22.40;51.10;;;;;;5011414;28;20029;-84
2022/05/15 09:04:27;;;;;;;5.32;2.55;;;22.40;51.10;;;;;;5012473;28;20022;-85
2022/05/15 09:07:04;;;;;;;3.88;2.35;;;22.40;51.00;;;;;;5013147;28;20131;-85
2022/05/15 09:10:07;;;;;;;3.85;2.40;;;22.40;51.20;;;;;;5029244;28;20037;-86
2022/05/15 09:12:36;;;;;;;4.00;2.50;;;22.40;51.10;;;;;;5013600;28;20433;-85
2022/05/15 09:15:08;;;;;;;5.28;2.80;;;22.40;51.00;;;;;;5013596;28;20041;-84
2022/05/15 09:17:51;;;;;;;4.15;2.25;;;22.40;51.00;;;;;;5011631;28;20061;-85
2022/05/15 09:20:27;;;;;;;4.38;2.40;;;22.40;51.10;;;;;;4996075;28;20525;-85
2022/05/15 09:23:05;;;;;;;3.55;2.20;;;22.40;51.00;;;;;;5013381;28;20041;-85
2022/05/15 09:25:36;;;;;;;4.78;2.65;;;22.40;51.00;;;;;;5012891;28;20029;-86
2022/05/15 09:28:06;;;;;;;3.15;2.17;;;22.40;51.00;;;;;;5014070;28;20072;-85
2022/05/15 09:30:43;;;;;;;4.47;2.70;;;22.40;51.00;;;;;;5013647;28;20483;-86
2022/05/15 09:33:30;;;;;;;4.32;2.50;;;22.40;51.00;;;;;;5012079;28;20025;-85
2022/05/15 09:36:26;;;;;;;3.95;2.25;;;22.40;51.00;;;;;;5006090;28;20091;-85
2022/05/15 09:39:10;;;;;;;4.60;2.60;;;22.40;51.00;;;;;;5013735;28;20037;-84
2022/05/15 09:44:38;;;;;;;3.17;2.20;;;22.40;51.20;;;;;;5012857;28;20029;-83
2022/05/15 09:47:10;;;;;;;3.95;2.35;;;22.40;51.10;;;;;;5027241;28;20553;-83
2022/05/15 09:49:36;;;;;;;3.65;2.17;;;22.40;51.00;;;;;;5010745;28;20037;-85
2022/05/15 09:52:10;;;;;;;3.15;1.98;;;22.40;51.10;;;;;;5011939;28;20528;-85
2022/05/15 09:54:38;;;;;;;4.32;2.47;;;22.40;51.10;;;;;;5011629;28;20140;-85
2022/05/15 09:57:30;;;;;;;4.90;2.50;;;22.40;51.10;;;;;;5011672;28;20034;-86
2022/05/15 09:59:56;;;;;;;3.55;2.40;;;22.40;51.10;;;;;;4994329;28;20056;-84
2022/05/15 10:02:30;;;;;;;3.65;2.30;;;22.40;51.10;;;;;;5011684;28;20040;-86
2022/05/15 10:04:56;;;;;;;4.68;2.30;;;22.40;51.20;;;;;;5012297;28;20084;-86
2022/05/15 10:07:44;;;;;;;3.67;2.25;;;22.40;51.10;;;;;;5012372;28;20037;-86
2022/05/15 10:10:16;;;;;;;3.67;2.40;;;22.40;51.10;;;;;;5028372;28;20034;-87
2022/05/15 10:12:43;;;;;;;3.70;2.22;;;22.40;51.10;;;;;;4995069;28;20038;-86
2022/05/15 10:15:11;;;;;;;3.83;2.17;;;22.40;51.10;;;;;;4995510;28;20045;-86
2022/05/15 10:17:47;;;;;;;3.78;2.10;;;22.40;51.10;;;;;;5012611;28;20033;-86
2022/05/15 10:20:24;;;;;;;4.20;2.45;;;22.40;51.10;;;;;;5012867;28;20426;-87
2022/05/15 10:22:59;;;;;;;5.22;2.35;;;22.40;51.00;;;;;;5004920;28;20026;-86
2022/05/15 10:25:36;;;;;;;3.15;2.33;;;22.40;51.10;;;;;;5012720;28;20021;-86
2022/05/15 10:28:27;;;;;;;3.35;2.17;;;22.40;51.10;;;;;;5011558;28;20030;-86
2022/05/15 10:31:16;;;;;;;3.17;2.08;;;22.40;51.00;;;;;;5012329;28;20033;-85
2022/05/15 10:33:47;;;;;;;2.60;1.90;;;22.40;51.60;;;;;;5009069;28;20032;-85
2022/05/15 10:36:30;;;;;;;3.47;2.35;;;22.40;51.10;;;;;;5011916;28;20100;-85
2022/05/15 10:39:07;;;;;;;3.20;2.13;;;22.40;51.10;;;;;;5012679;28;20502;-86
2022/05/15 10:41:39;;;;;;;3.22;2.13;;;22.30;51.00;;;;;;5012222;28;20030;-86
2022/05/15 10:44:13;;;;;;;4.05;2.35;;;22.30;51.10;;;;;;5012205;28;20033;-86
2022/05/15 10:46:46;;;;;;;4.45;2.58;;;22.40;51.20;;;;;;5011664;28;20550;-85
2022/05/15 10:49:44;;;;;;;3.53;2.10;;;22.30;51.10;;;;;;5011269;28;20072;-86
2022/05/15 10:52:45;;;;;;;4.03;2.15;;;22.30;51.10;;;;;;5005915;28;20486;-87
2022/05/15 10:58:30;;;;;;;3.65;2.20;;;22.30;51.10;;;;;;5014148;28;20045;-85
2022/05/15 11:01:00;;;;;;;3.80;2.20;;;22.30;51.10;;;;;;5016262;28;20033;-85
2022/05/15 11:03:35;;;;;;;3.95;2.40;;;22.30;51.10;;;;;;5015709;28;20029;-86
2022/05/15 11:06:31;;;;;;;4.15;2.35;;;22.30;51.20;;;;;;5016276;28;20030;-86
2022/05/15 11:09:17;;;;;;;3.78;2.53;;;22.30;51.20;;;;;;5014970;28;20390;-86
2022/05/15 11:12:14;;;;;;;4.47;2.40;;;22.30;51.20;;;;;;5016022;28;20394;-86
2022/05/15 11:15:22;;;;;;;3.58;2.10;;;22.40;51.20;;;;;;5015466;28;20022;-86
2022/05/15 11:18:00;;;;;;;3.58;2.08;;;22.40;51.20;;;;;;5032159;28;20501;-87
2022/05/15 11:20:31;;;;;;;3.83;2.40;;;22.30;51.20;;;;;;5017332;28;20502;-86
2022/05/15 11:23:17;;;;;;;3.63;2.15;;;22.40;51.20;;;;;;5016871;28;20049;-86
2022/05/15 11:25:56;;;;;;;4.97;2.50;;;22.30;51.10;;;;;;5016474;28;20482;-85
2022/05/15 11:28:33;;;;;;;3.60;1.88;;;22.30;51.10;;;;;;5014502;28;20026;-85
2022/05/15 11:31:09;;;;;;;3.67;2.20;;;22.30;51.10;;;;;;5014405;28;20117;-85
2022/05/15 11:33:44;;;;;;;4.40;2.28;;;22.30;51.10;;;;;;5014542;28;20391;-85
2022/05/15 11:36:13;;;;;;;2.88;2.00;;;22.30;51.20;;;;;;5015474;28;20030;-86
2022/05/15 11:38:52;;;;;;;4.30;2.22;;;22.30;51.20;;;;;;4997749;28;20030;-86
2022/05/15 11:41:36;;;;;;;3.55;2.30;;;22.30;51.10;;;;;;5030506;28;20018;-85
2022/05/15 11:44:03;;;;;;;3.25;2.10;;;22.30;51.10;;;;;;5015299;28;20386;-85
2022/05/15 11:46:47;;;;;;;3.78;2.25;;;22.30;51.10;;;;;;5015157;28;20030;-86
2022/05/15 11:49:35;;;;;;;3.72;2.38;;;22.30;51.10;;;;;;5015346;28;20065;-86
2022/05/15 11:52:03;;;;;;;4.40;2.25;;;22.30;51.20;;;;;;5013924;28;20680;-84
2022/05/15 11:54:38;;;;;;;4.07;2.58;;;22.30;51.10;;;;;;5013602;28;20113;-82
2022/05/15 11:57:07;;;;;;;3.08;2.17;;;22.30;51.20;;;;;;5014842;28;20037;-82
2022/05/15 11:59:54;;;;;;;3.75;2.45;;;22.30;51.20;;;;;;5014862;28;20022;-83
2022/05/15 12:02:29;;;;;;;4.68;2.40;;;22.30;51.10;;;;;;5014734;28;20022;-84
2022/05/15 12:05:03;;;;;;;3.33;2.22;;;22.30;51.20;;;;;;5013717;28;20038;-83
2022/05/15 12:07:33;;;;;;;3.75;2.30;;;22.30;51.70;;;;;;5013509;28;20030;-84
2022/05/15 12:09:59;;;;;;;3.13;2.15;;;22.30;51.20;;;;;;5015514;28;20160;-83
2022/05/15 12:12:27;;;;;;;3.53;2.20;;;22.30;51.10;;;;;;5015750;28;20054;-83
2022/05/15 12:15:10;;;;;;;3.97;2.30;;;22.30;51.10;;;;;;4998727;28;20486;-83
2022/05/15 12:17:59;;;;;;;4.70;2.42;;;22.30;51.10;;;;;;5015448;28;20030;-83
2022/05/15 12:20:30;;;;;;;4.40;2.33;;;22.30;51.10;;;;;;5014744;28;20026;-83
2022/05/15 12:23:03;;;;;;;4.43;2.28;;;22.30;51.10;;;;;;5011889;28;20030;-83
2022/05/15 12:25:33;;;;;;;3.25;2.05;;;22.30;51.10;;;;;;5013627;28;20367;-82
2022/05/15 12:31:12;;;;;;;3.92;2.20;;;22.30;51.10;;;;;;5013685;28;20030;-82
2022/05/15 12:33:40;;;;;;;3.67;2.10;;;22.30;51.10;;;;;;5013509;28;20084;-82
2022/05/15 12:36:15;;;;;;;3.85;2.00;;;22.30;51.20;;;;;;5013743;28;20038;-82
2022/05/15 12:38:47;;;;;;;3.40;2.22;;;22.30;51.10;;;;;;5012002;28;20029;-83
2022/05/15 12:41:23;;;;;;;3.50;2.05;;;22.30;51.10;;;;;;5013439;28;20289;-83
2022/05/15 12:43:49;;;;;;;3.50;1.83;;;22.30;51.10;;;;;;5013678;28;20025;-82
2022/05/15 12:46:29;;;;;;;4.05;2.17;;;22.30;51.10;;;;;;5012520;28;20103;-82
2022/05/15 12:48:56;;;;;;;3.78;2.25;;;22.30;51.20;;;;;;5013596;28;20029;-83
2022/05/15 12:51:35;;;;;;;3.80;2.20;;;22.30;51.20;;;;;;5013549;28;20034;-84
2022/05/15 12:54:03;;;;;;;3.80;2.17;;;22.30;51.10;;;;;;5027168;28;20025;-84
2022/05/15 12:56:32;;;;;;;3.60;2.25;;;22.30;51.10;;;;;;5029281;28;20030;-84
2022/05/15 12:58:58;;;;;;;;;;;22.30;51.20;;;;;;5014586;28;20033;-84
2022/05/15 13:01:31;;;;;;;3.90;2.03;;;22.30;51.20;;;;;;4997823;28;19909;-85
2022/05/15 13:03:59;;;;;;;3.00;1.90;;;22.30;51.20;;;;;;4997397;28;20030;-84
2022/05/15 13:06:40;;;;;;;3.97;2.35;;;22.30;51.10;;;;;;5012620;28;20037;-84
2022/05/15 13:09:10;;;;;;;3.13;1.98;;;22.30;51.20;;;;;;5012495;28;20084;-84
2022/05/15 13:11:41;;;;;;;3.15;2.00;;;22.30;51.20;;;;;;5012247;28;20021;-85
2022/05/15 13:14:17;;;;;;;2.80;1.88;;;22.30;51.10;;;;;;5028775;28;20496;-83
2022/05/15 13:16:46;;;;;;;3.35;2.10;;;22.30;51.10;;;;;;5013048;28;20466;-83
2022/05/15 13:19:14;;;;;;;4.40;2.63;;;22.30;51.20;;;;;;5013012;28;20029;-83
2022/05/15 13:21:49;;;;;;;4.20;2.05;;;22.30;51.10;;;;;;5012232;28;20029;-83
2022/05/15 13:24:17;;;;;;;3.88;2.20;;;22.30;51.10;;;;;;5007162;28;20029;-83
2022/05/15 13:26:46;;;;;;;3.83;2.13;;;22.30;51.20;;;;;;5013531;28;20076;-83
2022/05/15 13:29:16;;;;;;;3.03;1.90;;;22.30;51.70;;;;;;5013638;28;20330;-84